Home   Weather   Canada   Halifax   Past weeks
Flag for Canada

Past Weather in Halifax, Nova Scotia, Canada — Yesterday and Last 2 Weeks

Currently: 64 °F. Scattered clouds. (Weather station: Halifax International Airport, Canada). See more current weather

Past Weather in Halifax — Graph

°F

Halifax Temperature Yesterday

Maximum temperature yesterday: 70 °F (at 4:00 pm)
Minimum temperature yesterday: 61 °F (at 4:00 am)
Average temperature yesterday: 66 °F

High & Low Weather Summary for the Past Weeks

 TemperatureHumidityPressure
High88 °F (Aug 7, 3:00 pm)100% (Aug 5, 6:40 am)30.23 "Hg (Aug 5, 6:40 am)
Low57 °F (Aug 10, 5:37 am)45% (Aug 4, 1:00 pm)29.79 "Hg (Aug 9, 10:05 am)
Average68 °F88%29.99 "Hg
* Reported Aug 3 8:00 pm — Aug 18 8:00 pm, Halifax. Weather by CustomWeather, © 2022

Note: Actual official high and low records may vary slightly from our data, if they occured in-between our weather recording intervals... More about our weather records

Halifax Weather History for the Previous 24 Hours

Scroll right to see more
 ConditionsComfort  
Time TempWeatherWind HumidityBarometerVisibility
8:00 pm
Thu, Aug 18
64 °FScattered clouds.10 mph83%29.83 "Hg15 mi
7:00 pm66 °FScattered clouds.14 mph78%29.83 "Hg15 mi
6:00 pm66 °FPartly sunny.14 mph83%29.84 "Hg15 mi
5:00 pm68 °FPartly sunny.18 mph73%29.84 "Hg15 mi
4:00 pm70 °FPartly sunny.12 mph73%29.83 "Hg15 mi
3:00 pm70 °FBroken clouds.13 mph73%29.85 "Hg15 mi
2:00 pm68 °FBroken clouds.15 mph78%29.85 "Hg15 mi
1:00 pm66 °FScattered showers. Partly sunny.13 mph88%29.85 "Hg15 mi
12:21 pm66 °FScattered showers. Partly sunny.14 mph83%29.86 "Hg12 mi
11:11 am64 °FSprinkles. Fog.10 mph94%29.86 "Hg5 mi
10:12 am64 °FFog.13 mph88%29.85 "Hg6 mi
9:46 am63 °FLight rain. Fog.9 mph94%29.85 "Hg4 mi
9:12 am63 °FFog.13 mph100%29.86 "Hg2 mi
9:00 am63 °FFog.14 mph94%29.86 "Hg4 mi
8:00 am61 °FFog.9 mph100%29.85 "Hg3 mi
7:15 am61 °FFog.9 mph100%29.86 "Hg2 mi
7:00 am61 °FDrizzle. Fog.8 mph100%29.86 "Hg1 mi
6:00 am63 °FDrizzle. Fog.9 mph94%29.85 "Hg1 mi
5:30 am63 °FDrizzle. Fog.10 mph100%29.84 "Hg2 mi
5:09 am64 °FDrizzle. Low clouds.13 mph94%29.83 "Hg10 mi
4:00 am64 °FOvercast.10 mph94%29.84 "Hg15 mi
3:00 am64 °FPassing clouds.9 mph100%29.83 "Hg12 mi
2:00 am66 °FPartly cloudy.12 mph94%29.82 "Hg8 mi
1:00 am66 °FFog.14 mph100%29.83 "Hg3 mi
12:35 am66 °FDrizzle. Fog.13 mph100%29.83 "Hg1 mi
12:14 am66 °FFog.9 mph100%29.84 "Hg1 mi
12:00 am66 °FFog.8 mph100%29.84 "Hg1 mi
11:20 pm
Wed, Aug 17
68 °FFog.13 mph94%29.85 "Hg4 mi
11:00 pm68 °FFog.15 mph100%29.85 "Hg2 mi
10:34 pm68 °FFog.15 mph100%29.85 "Hg2 mi
10:07 pm68 °FFog.13 mph100%29.86 "Hg0 mi
Weather by CustomWeather, © 2022

See weather overview